Time;durP1;ratioP1;P1;durP2;ratioP2;P2;SDS_P1;SDS_P2;PMS_P1;PMS_P2;Temp;Humidity;BMP_temperature;BMP_pressure;BME280_temperature;BME280_humidity;BME280_pressure;Samples;Min_cycle;Max_cycle;Signal;HPM_P1;HPM_P2
2023/05/23 00:01:41;;;;;;;10.50;7.00;;;384.40;2329.60;;;;;;5031716;28;20033;-53
2023/05/23 00:04:08;;;;;;;9.00;6.22;;;384.40;2329.60;;;;;;5031548;28;20025;-57
2023/05/23 00:06:35;;;;;;;13.45;8.35;;;384.30;2329.60;;;;;;5030887;28;20693;-54
2023/05/23 00:09:01;;;;;;;10.27;7.40;;;384.30;2329.60;;;;;;5031201;28;20422;-54
2023/05/23 00:11:28;;;;;;;7.90;6.55;;;384.40;2329.60;;;;;;5031761;28;20024;-59
2023/05/23 00:13:54;;;;;;;11.48;7.80;;;384.30;2329.60;;;;;;5031210;28;20111;-53
2023/05/23 00:16:21;;;;;;;11.50;7.28;;;384.20;2329.60;;;;;;5031531;28;20414;-53
2023/05/23 00:18:49;;;;;;;10.23;7.05;;;;;;;;;;5031846;28;20025;-53
2023/05/23 00:21:15;;;;;;;10.00;8.18;;;384.40;2329.60;;;;;;5031267;28;20076;-53
2023/05/23 00:23:41;;;;;;;11.40;8.10;;;384.30;2329.60;;;;;;5031278;28;20057;-54
2023/05/23 00:26:10;;;;;;;9.05;7.82;;;384.20;2329.60;;;;;;5031663;28;20079;-54
2023/05/23 00:28:39;;;;;;;10.43;7.20;;;384.20;2329.60;;;;;;5031226;28;20025;-54
2023/05/23 00:31:05;;;;;;;9.75;7.43;;;384.20;2329.60;;;;;;5028613;28;20018;-54
2023/05/23 00:33:32;;;;;;;12.15;7.47;;;384.10;2329.60;;;;;;5030578;28;20496;-54
2023/05/23 00:35:59;;;;;;;8.32;7.50;;;384.10;2329.60;;;;;;5030760;28;20447;-54
2023/05/23 00:38:25;;;;;;;13.43;7.15;;;384.10;2329.60;;;;;;5028500;28;20368;-54
2023/05/23 00:40:51;;;;;;;8.63;6.80;;;384.10;2329.60;;;;;;5031156;28;20095;-55
2023/05/23 00:43:18;;;;;;;10.13;6.97;;;384.10;2329.60;;;;;;5031113;28;20439;-53
2023/05/23 00:45:44;;;;;;;8.45;7.13;;;384.00;2329.60;;;;;;5030904;28;20076;-53
2023/05/23 00:48:10;;;;;;;11.57;7.65;;;384.00;2329.60;;;;;;5031451;28;20021;-54
2023/05/23 00:50:36;;;;;;;12.80;7.55;;;359.20;2329.60;;;;;;5031149;28;20037;-54
2023/05/23 00:53:03;;;;;;;10.02;7.78;;;359.20;2329.60;;;;;;5030502;28;20064;-56
2023/05/23 00:55:31;;;;;;;9.30;7.82;;;359.20;2329.60;;;;;;5030806;28;20144;-54
2023/05/23 00:57:57;;;;;;;11.98;8.52;;;359.20;2329.60;;;;;;5031361;28;20128;-54
2023/05/23 01:00:24;;;;;;;8.48;7.20;;;359.10;2329.60;;;;;;5031123;28;20026;-55
2023/05/23 01:02:51;;;;;;;8.57;6.65;;;359.10;2329.60;;;;;;5031195;28;20048;-54
2023/05/23 01:05:17;;;;;;;10.15;7.43;;;358.90;2329.60;;;;;;5031247;28;20032;-54
2023/05/23 01:07:44;;;;;;;9.95;7.50;;;358.90;2329.60;;;;;;5030723;28;20488;-54
2023/05/23 01:10:10;;;;;;;10.07;7.88;;;358.80;2329.60;;;;;;5031210;28;20030;-54
2023/05/23 01:12:56;;;;;;;13.45;7.53;;;358.90;2329.60;;;;;;5031050;28;20041;-55
2023/05/23 01:15:28;;;;;;;7.63;6.40;;;358.90;2329.60;;;;;;5030667;28;20716;-54
2023/05/23 01:18:18;;;;;;;10.38;6.45;;;359.00;2329.60;;;;;;5029790;28;20103;-54
2023/05/23 01:20:54;;;;;;;8.90;7.20;;;359.10;2329.60;;;;;;5030712;28;20057;-53
2023/05/23 01:24:10;;;;;;;14.38;7.30;;;359.10;2329.60;;;;;;5030593;28;20958;-54
2023/05/23 01:26:54;;;;;;;8.40;6.63;;;359.30;2329.60;;;;;;5030612;28;20430;-54
2023/05/23 01:29:26;;;;;;;9.98;6.78;;;;;;;;;;5030674;28;20466;-54
2023/05/23 01:31:53;;;;;;;8.90;6.35;;;;;;;;;;5030422;28;20109;-54
2023/05/23 01:34:20;;;;;;;17.08;7.38;;;;;;;;;;5030448;28;20112;-54
2023/05/23 01:36:49;;;;;;;10.95;7.07;;;;;;;;;;5030071;28;20099;-54
2023/05/23 01:39:15;;;;;;;7.65;6.50;;;;;;;;;;5030151;28;20034;-54
2023/05/23 01:41:41;;;;;;;8.43;6.70;;;;;;;;;;5030467;28;20033;-55
2023/05/23 01:44:07;;;;;;;13.50;7.40;;;359.20;2329.60;;;;;;5030360;28;20379;-54
2023/05/23 01:46:34;;;;;;;10.70;6.88;;;359.00;2329.60;;;;;;5030119;28;20040;-54
2023/05/23 01:49:02;;;;;;;11.98;6.75;;;359.00;2329.60;;;;;;5030413;28;20476;-53
2023/05/23 01:51:29;;;;;;;11.23;7.15;;;359.00;2329.60;;;;;;5030261;28;20415;-54
2023/05/23 01:53:56;;;;;;;7.68;6.47;;;358.80;2329.60;;;;;;5029975;28;20030;-54
2023/05/23 01:56:22;;;;;;;7.55;6.07;;;358.80;2329.60;;;;;;5030112;28;20083;-54
2023/05/23 01:58:48;;;;;;;8.02;6.47;;;358.80;2329.60;;;;;;5030155;28;20029;-55
2023/05/23 02:01:14;;;;;;;10.15;7.05;;;358.80;2329.60;;;;;;5029872;28;20029;-55
2023/05/23 02:03:40;;;;;;;9.18;7.07;;;358.80;2329.60;;;;;;5030051;28;20491;-54
2023/05/23 02:06:06;;;;;;;8.65;7.00;;;358.80;2329.60;;;;;;5030006;28;20467;-54
2023/05/23 02:08:32;;;;;;;7.90;7.10;;;358.80;2329.60;;;;;;5029825;28;20021;-54
2023/05/23 02:10:57;;;;;;;8.00;6.70;;;358.80;2329.60;;;;;;5030035;28;20379;-54
2023/05/23 02:13:23;;;;;;;10.35;6.95;;;358.70;2329.60;;;;;;5029851;28;20091;-54
2023/05/23 02:15:49;;;;;;;10.02;7.22;;;358.60;2329.60;;;;;;5029897;28;20365;-54
2023/05/23 02:18:14;;;;;;;11.95;6.93;;;358.60;2329.60;;;;;;5029637;28;20038;-54
2023/05/23 02:20:40;;;;;;;9.48;6.80;;;358.60;2329.60;;;;;;5030009;28;20026;-54
2023/05/23 02:23:06;;;;;;;10.35;7.22;;;358.50;2329.60;;;;;;5029670;28;20463;-54
2023/05/23 02:25:31;;;;;;;10.93;6.97;;;358.40;2329.60;;;;;;5028299;28;20106;-54
2023/05/23 02:27:57;;;;;;;12.10;8.30;;;358.40;2329.60;;;;;;5029480;28;20514;-54
2023/05/23 02:30:23;;;;;;;12.85;7.60;;;358.40;2329.60;;;;;;5029569;28;20376;-54
2023/05/23 02:32:50;;;;;;;8.98;7.32;;;358.50;2329.60;;;;;;5029671;28;20029;-54
2023/05/23 02:35:16;;;;;;;10.05;7.38;;;358.50;2329.60;;;;;;5029565;28;20025;-54
2023/05/23 02:37:41;;;;;;;9.52;7.63;;;358.50;2329.60;;;;;;5028887;28;20133;-55
2023/05/23 02:40:09;;;;;;;14.73;7.53;;;358.40;2329.60;;;;;;5030083;28;20051;-55
2023/05/23 02:42:35;;;;;;;9.40;7.60;;;358.50;2329.60;;;;;;5029434;28;20053;-55
2023/05/23 02:45:01;;;;;;;16.27;6.97;;;358.40;2329.60;;;;;;5029187;28;20060;-55
2023/05/23 02:47:26;;;;;;;10.02;6.85;;;358.40;2329.60;;;;;;5029462;28;20026;-55
2023/05/23 02:49:52;;;;;;;11.35;7.32;;;358.40;2329.60;;;;;;5029423;28;20364;-54
2023/05/23 02:52:18;;;;;;;10.50;7.70;;;358.40;2329.60;;;;;;5029358;28;20088;-54
2023/05/23 02:54:44;;;;;;;11.82;8.65;;;358.40;2329.60;;;;;;5029105;28;20052;-54
2023/05/23 02:57:10;;;;;;;8.63;7.72;;;333.50;2329.60;;;;;;5029399;28;20049;-54
2023/05/23 02:59:35;;;;;;;10.32;8.40;;;333.40;2329.60;;;;;;5027908;28;20030;-54
2023/05/23 03:02:01;;;;;;;9.88;8.32;;;333.30;2329.60;;;;;;5029038;28;20033;-54
2023/05/23 03:04:28;;;;;;;13.85;8.30;;;333.30;2329.60;;;;;;5029270;28;20029;-54
2023/05/23 03:06:54;;;;;;;9.82;7.90;;;333.40;2329.60;;;;;;5028976;28;20042;-54
2023/05/23 03:09:20;;;;;;;9.38;7.50;;;333.50;2329.60;;;;;;5028930;28;20080;-54
2023/05/23 03:11:46;;;;;;;11.25;7.18;;;333.60;2329.60;;;;;;5029299;28;20057;-56
2023/05/23 03:14:12;;;;;;;10.60;7.32;;;333.70;2329.60;;;;;;5029125;28;20049;-54
2023/05/23 03:16:37;;;;;;;6.97;6.28;;;358.40;2329.60;;;;;;5029130;28;20021;-54
2023/05/23 03:19:03;;;;;;;10.43;6.93;;;358.60;2329.60;;;;;;5028857;28;20430;-55
2023/05/23 03:21:31;;;;;;;11.07;6.95;;;358.60;2329.60;;;;;;5029287;28;20637;-53
2023/05/23 03:23:56;;;;;;;7.88;7.10;;;358.60;2329.60;;;;;;5029014;28;20049;-54
2023/05/23 03:26:22;;;;;;;8.75;6.78;;;358.70;2329.60;;;;;;5029122;28;20025;-54
2023/05/23 03:28:50;;;;;;;8.48;6.45;;;358.70;2329.60;;;;;;5029162;28;20539;-54
2023/05/23 03:31:16;;;;;;;11.45;7.63;;;358.80;2329.60;;;;;;5029033;28;20029;-53
2023/05/23 03:33:41;;;;;;;8.50;7.60;;;358.60;2329.60;;;;;;5028967;28;20021;-54
2023/05/23 03:36:07;;;;;;;10.05;7.60;;;358.60;2329.60;;;;;;5028812;28;20480;-55
2023/05/23 03:38:33;;;;;;;10.20;8.23;;;358.80;2329.60;;;;;;5028826;28;20403;-53
2023/05/23 03:40:59;;;;;;;9.15;7.43;;;358.80;2329.60;;;;;;5031522;28;20530;-53
2023/05/23 03:43:24;;;;;;;9.23;7.03;;;358.80;2329.60;;;;;;5032429;28;20029;-54
2023/05/23 03:45:50;;;;;;;11.90;6.78;;;358.90;2329.60;;;;;;5032512;28;20053;-54
2023/05/23 03:48:16;;;;;;;10.63;6.82;;;359.00;2329.60;;;;;;5032697;28;20096;-54
2023/05/23 03:50:41;;;;;;;9.80;6.90;;;359.10;2329.60;;;;;;5032434;28;20480;-53
2023/05/23 03:53:07;;;;;;;10.65;7.35;;;359.20;2329.60;;;;;;5032371;28;20041;-53
2023/05/23 03:55:33;;;;;;;9.30;6.70;;;384.00;2329.60;;;;;;5032303;28;20082;-53
2023/05/23 03:57:59;;;;;;;10.18;7.35;;;384.00;2329.60;;;;;;5032434;28;20125;-54
2023/05/23 04:00:25;;;;;;;10.13;6.70;;;384.10;2329.60;;;;;;5032176;28;20021;-54
2023/05/23 04:02:51;;;;;;;9.25;6.97;;;384.10;2329.60;;;;;;5032048;28;20036;-54
2023/05/23 04:05:17;;;;;;;9.93;7.63;;;384.40;2329.60;;;;;;5032220;28;20021;-55
2023/05/23 04:07:43;;;;;;;9.55;6.95;;;384.60;2329.60;;;;;;5031405;28;20124;-55
2023/05/23 04:10:09;;;;;;;12.43;7.72;;;384.70;2329.60;;;;;;5032093;28;20033;-54
2023/05/23 04:12:36;;;;;;;10.10;6.93;;;384.70;2329.60;;;;;;5032001;28;20029;-54
2023/05/23 04:15:02;;;;;;;8.40;6.18;;;384.90;2329.60;;;;;;5031880;28;20053;-53
2023/05/23 04:17:30;;;;;;;8.43;7.00;;;409.60;2355.20;;;;;;5032039;28;20112;-54
2023/05/23 04:19:56;;;;;;;11.63;6.78;;;409.80;2355.20;;;;;;5031959;28;20361;-53
2023/05/23 04:22:22;;;;;;;8.93;6.45;;;409.60;2355.20;;;;;;5031649;28;20108;-54
2023/05/23 04:24:47;;;;;;;7.53;5.90;;;409.60;2355.20;;;;;;5031177;28;20188;-53
2023/05/23 04:27:13;;;;;;;10.13;6.78;;;409.80;2355.20;;;;;;5031631;28;20032;-54
2023/05/23 04:29:39;;;;;;;10.40;7.00;;;409.90;2355.20;;;;;;5031808;28;20105;-55
2023/05/23 04:32:05;;;;;;;9.18;6.68;;;410.10;2355.20;;;;;;5031539;28;20075;-54
2023/05/23 04:34:34;;;;;;;8.35;6.47;;;410.20;2355.20;;;;;;5031195;28;20030;-54
2023/05/23 04:37:03;;;;;;;12.07;7.05;;;410.50;2355.20;;;;;;5031363;28;20037;-55
2023/05/23 04:39:29;;;;;;;10.07;6.50;;;435.40;2355.20;;;;;;5031726;28;20033;-55
2023/05/23 04:41:58;;;;;;;8.13;6.28;;;512.90;2380.80;;;;;;5031471;28;20163;-56
2023/05/23 04:44:25;;;;;;;7.20;6.00;;;563.60;2278.40;;;;;;5031231;28;20026;-54
2023/05/23 04:46:51;;;;;;;9.45;6.53;;;640.10;1971.20;;;;;;5030790;28;20108;-55
2023/05/23 04:49:17;;;;;;;7.32;5.90;;;691.60;1766.40;;;;;;5031479;28;20049;-55
2023/05/23 04:51:43;;;;;;;9.82;6.60;;;742.40;1664.00;;;;;;5030591;28;20514;-55
2023/05/23 04:54:08;;;;;;;6.43;5.72;;;768.30;1561.60;;;;;;5031006;28;20614;-55
2023/05/23 04:56:34;;;;;;;7.38;6.40;;;794.40;1484.80;;;;;;5031089;28;20034;-55
2023/05/23 04:59:00;;;;;;;6.95;6.10;;;793.80;1510.40;;;;;;5031347;28;20021;-56
2023/05/23 05:01:26;;;;;;;8.70;6.20;;;768.60;1484.80;;;;;;5031231;28;20488;-55
2023/05/23 05:03:52;;;;;;;6.22;5.63;;;819.40;1433.60;;;;;;5031020;28;20040;-55
2023/05/23 05:06:18;;;;;;;6.28;5.68;;;845.20;1408.00;;;;;;5030958;28;20030;-55
2023/05/23 05:08:44;;;;;;;9.50;6.63;;;870.50;1382.40;;;;;;5030427;28;20079;-55
2023/05/23 05:11:10;;;;;;;8.75;7.10;;;870.70;1331.20;;;;;;5031098;28;20116;-55
2023/05/23 05:13:35;;;;;;;7.32;6.47;;;896.70;1280.00;;;;;;5030981;28;20029;-55
2023/05/23 05:16:02;;;;;;;8.32;7.35;;;;;;;;;;5030734;28;20021;-55
2023/05/23 05:18:28;;;;;;;9.45;6.78;;;;;;;;;;5030814;28;20042;-56
2023/05/23 05:20:54;;;;;;;7.13;6.43;;;896.80;1254.40;;;;;;5030634;28;20017;-56
2023/05/23 05:23:27;;;;;;;11.05;7.80;;;948.10;1177.60;;;;;;5028753;28;20033;-55
2023/05/23 05:25:55;;;;;;;8.10;6.93;;;;;;;;;;5030303;28;20033;-56
2023/05/23 05:28:20;;;;;;;10.75;6.75;;;947.70;1177.60;;;;;;5030753;28;20387;-55
2023/05/23 05:30:47;;;;;;;9.85;7.35;;;998.50;1152.00;;;;;;5030475;28;20024;-55
2023/05/23 05:33:13;;;;;;;8.75;7.85;;;999.10;1126.40;;;;;;5030123;28;20028;-55
2023/05/23 05:35:38;;;;;;;23.20;9.35;;;1024.50;1100.80;;;;;;5029687;28;20025;-55
2023/05/23 05:38:04;;;;;;;9.35;8.45;;;999.20;1100.80;;;;;;5029696;28;20057;-54
2023/05/23 05:40:31;;;;;;;8.25;7.53;;;1049.80;1075.20;;;;;;5030256;28;20026;-57
2023/05/23 05:42:57;;;;;;;10.88;7.75;;;1050.10;1075.20;;;;;;5029895;28;20025;-53
2023/05/23 05:45:23;;;;;;;14.98;9.32;;;1075.20;1049.60;;;;;;5029696;28;20357;-57
2023/05/23 05:47:48;;;;;;;14.10;9.02;;;1050.10;1075.20;;;;;;5030371;28;20026;-55
2023/05/23 05:50:14;;;;;;;10.13;9.10;;;1049.90;1075.20;;;;;;5029481;28;20502;-58
2023/05/23 05:52:41;;;;;;;13.13;9.65;;;1049.70;1075.20;;;;;;5030302;28;20026;-58
2023/05/23 05:55:11;;;;;;;9.95;9.02;;;1024.90;1075.20;;;;;;5029965;28;20022;-58
2023/05/23 05:57:38;;;;;;;11.13;8.70;;;1024.60;1075.20;;;;;;5029062;28;20056;-57
2023/05/23 06:00:14;;;;;;;11.07;9.15;;;1024.50;1100.80;;;;;;5029633;28;20029;-57
2023/05/23 06:02:42;;;;;;;10.23;9.32;;;1075.50;1024.00;;;;;;5029326;28;20025;-58
2023/05/23 06:05:11;;;;;;;10.27;9.43;;;1126.40;1024.00;;;;;;5029954;28;20387;-57
2023/05/23 06:07:39;;;;;;;11.55;10.35;;;1126.60;1024.00;;;;;;5029296;28;20479;-57
2023/05/23 06:10:06;;;;;;;11.65;10.65;;;1101.30;998.40;;;;;;5029286;28;20120;-60
2023/05/23 06:12:33;;;;;;;12.52;11.18;;;1101.70;998.40;;;;;;5028726;28;20123;-57
2023/05/23 06:14:59;;;;;;;12.27;11.10;;;1075.50;1049.60;;;;;;5029841;28;20382;-57
2023/05/23 06:17:24;;;;;;;11.13;10.10;;;1126.60;1024.00;;;;;;5031705;28;20029;-58
2023/05/23 06:19:50;;;;;;;11.57;10.68;;;1075.80;1024.00;;;;;;5033159;28;20508;-58
2023/05/23 06:22:17;;;;;;;12.73;11.52;;;1126.60;998.40;;;;;;5033150;28;20040;-57
2023/05/23 06:28:04;;;;;;;11.30;10.10;;;1101.00;998.40;;;;;;5033191;28;20123;-57
2023/05/23 06:30:30;;;;;;;12.30;11.25;;;1152.20;972.80;;;;;;5033228;28;20481;-57
2023/05/23 06:32:56;;;;;;;11.45;10.38;;;1126.80;1024.00;;;;;;5033199;28;20086;-57
2023/05/23 06:35:22;;;;;;;11.70;10.75;;;1178.00;921.60;;;;;;5033337;28;20021;-57
2023/05/23 06:37:47;;;;;;;12.65;11.38;;;1203.30;921.60;;;;;;5032717;28;20431;-57
2023/05/23 06:43:35;;;;;;;13.23;11.95;;;1228.90;896.00;;;;;;5033201;28;20048;-57
2023/05/23 06:46:01;;;;;;;12.05;11.02;;;1254.60;870.40;;;;;;5033355;28;20349;-57
2023/05/23 06:48:27;;;;;;;21.33;19.88;;;1229.50;870.40;;;;;;5033086;28;20040;-56
2023/05/23 06:50:52;;;;;;;13.05;11.95;;;1254.80;870.40;;;;;;5033073;28;20498;-57
2023/05/23 06:53:18;;;;;;;12.48;11.32;;;1254.60;870.40;;;;;;5033021;28;20104;-57
2023/05/23 06:59:06;;;;;;;12.30;11.20;;;1254.60;870.40;;;;;;5033134;28;20072;-57
2023/05/23 07:01:31;;;;;;;12.95;11.75;;;1178.50;896.00;;;;;;5032897;28;20463;-62
2023/05/23 07:03:57;;;;;;;13.38;12.07;;;1178.00;921.60;;;;;;5032911;28;20025;-60
2023/05/23 07:06:23;;;;;;;12.57;11.55;;;1177.70;921.60;;;;;;5032874;28;20368;-59
2023/05/23 07:08:48;;;;;;;12.55;10.77;;;1203.60;921.60;;;;;;5032615;28;20030;-57
2023/05/23 07:11:14;;;;;;;13.55;12.30;;;1229.30;896.00;;;;;;5032480;28;20064;-56
2023/05/23 07:13:40;;;;;;;13.02;11.93;;;1254.80;896.00;;;;;;5033338;28;20029;-57
2023/05/23 07:16:06;;;;;;;13.00;11.95;;;1229.30;896.00;;;;;;5036868;28;20368;-57
2023/05/23 07:18:31;;;;;;;13.43;12.32;;;1254.60;896.00;;;;;;5036544;28;20037;-61
2023/05/23 07:20:57;;;;;;;15.90;13.10;;;1254.90;896.00;;;;;;5037061;28;20033;-57
2023/05/23 07:23:24;;;;;;;13.18;12.18;;;1178.00;947.20;;;;;;5036709;28;20513;-57
2023/05/23 07:29:12;;;;;;;14.80;13.27;;;1229.00;896.00;;;;;;5036507;28;20059;-57
2023/05/23 07:31:38;;;;;;;14.18;11.90;;;1229.20;896.00;;;;;;5036504;28;20287;-56
2023/05/23 07:34:04;;;;;;;12.15;11.10;;;1204.10;870.40;;;;;;5036231;28;20028;-57
2023/05/23 07:36:32;;;;;;;13.18;11.80;;;1152.50;921.60;;;;;;5036184;28;20049;-57
2023/05/23 07:38:58;;;;;;;12.50;11.38;;;1178.00;896.00;;;;;;5035995;28;20083;-56
2023/05/23 07:41:24;;;;;;;12.07;11.05;;;1254.40;870.40;;;;;;5035714;28;20029;-63
2023/05/23 07:43:49;;;;;;;33.60;14.35;;;1229.40;870.40;;;;;;5036423;28;20025;-57
2023/05/23 07:46:15;;;;;;;13.27;12.13;;;1254.90;844.80;;;;;;5035944;28;20036;-59
2023/05/23 07:48:41;;;;;;;12.15;11.18;;;1254.90;870.40;;;;;;5035884;28;20033;-57
2023/05/23 07:51:07;;;;;;;12.38;11.15;;;1229.40;844.80;;;;;;5036207;28;20026;-57
2023/05/23 07:53:33;;;;;;;12.82;11.60;;;1228.80;870.40;;;;;;5036390;28;20108;-61
2023/05/23 07:59:21;;;;;;;15.40;12.25;;;1177.70;870.40;;;;;;5036004;28;20049;-58
2023/05/23 08:01:49;;;;;;;12.23;11.18;;;1178.30;870.40;;;;;;5036009;28;20025;-57
2023/05/23 08:04:16;;;;;;;13.50;11.40;;;1204.10;844.80;;;;;;5036219;28;20053;-57
2023/05/23 08:06:41;;;;;;;11.90;10.75;;;1178.20;896.00;;;;;;5035469;28;20554;-57
2023/05/23 08:09:07;;;;;;;12.95;11.65;;;1127.30;947.20;;;;;;5035855;28;20109;-57
2023/05/23 08:11:34;;;;;;;12.32;11.18;;;1152.60;896.00;;;;;;5035712;28;20100;-56
2023/05/23 08:14:00;;;;;;;11.60;10.48;;;1126.70;947.20;;;;;;5035471;28;20108;-56
2023/05/23 08:16:26;;;;;;;10.65;9.80;;;1050.30;972.80;;;;;;5035369;28;20041;-56
2023/05/23 08:18:52;;;;;;;11.27;8.55;;;998.60;998.40;;;;;;5035217;28;20037;-57
2023/05/23 08:21:18;;;;;;;10.23;7.70;;;947.30;1075.20;;;;;;5035314;28;20022;-56
2023/05/23 08:23:43;;;;;;;9.60;7.80;;;896.40;1100.80;;;;;;5035598;28;20025;-57
2023/05/23 08:29:31;;;;;;;10.35;7.63;;;845.00;1203.20;;;;;;5035520;28;20529;-57
2023/05/23 08:31:56;;;;;;;8.45;6.95;;;845.60;1152.00;;;;;;5035533;28;20104;-56
2023/05/23 08:34:22;;;;;;;9.60;7.15;;;820.00;1203.20;;;;;;5035351;28;20033;-56
2023/05/23 08:36:48;;;;;;;8.85;7.18;;;819.60;1228.80;;;;;;5034778;28;20140;-56
2023/05/23 08:39:13;;;;;;;9.15;7.13;;;819.30;1228.80;;;;;;5035284;28;20034;-56
2023/05/23 08:41:39;;;;;;;8.18;6.78;;;793.90;1305.60;;;;;;5035237;28;20018;-57
2023/05/23 08:44:05;;;;;;;7.78;7.00;;;794.10;1280.00;;;;;;5035199;28;20025;-56
2023/05/23 08:46:33;;;;;;;11.48;6.30;;;794.50;1280.00;;;;;;5034904;28;20371;-56
2023/05/23 08:48:59;;;;;;;9.93;6.60;;;794.20;1254.40;;;;;;5034868;28;20100;-56
2023/05/23 08:51:26;;;;;;;10.23;6.55;;;768.90;1280.00;;;;;;5035080;28;20044;-56
2023/05/23 08:53:55;;;;;;;8.18;5.78;;;768.40;1305.60;;;;;;5034985;28;20067;-56
2023/05/23 08:59:43;;;;;;;10.85;6.13;;;793.70;1356.80;;;;;;5034991;28;20522;-56
2023/05/23 09:02:13;;;;;;;15.35;6.72;;;793.80;1331.20;;;;;;5034949;28;20025;-56
2023/05/23 09:04:39;;;;;;;11.10;6.53;;;768.50;1305.60;;;;;;5034543;28;20059;-56
2023/05/23 09:07:05;;;;;;;12.68;5.70;;;793.60;1331.20;;;;;;5034483;28;20025;-54
2023/05/23 09:09:31;;;;;;;10.70;6.75;;;794.00;1280.00;;;;;;5034487;28;20479;-55
2023/05/23 09:11:59;;;;;;;7.45;6.35;;;768.10;1305.60;;;;;;5034754;28;20101;-56
2023/05/23 09:14:25;;;;;;;7.35;5.68;;;743.20;1331.20;;;;;;5034658;28;20072;-56
2023/05/23 09:16:51;;;;;;;8.77;6.85;;;768.40;1305.60;;;;;;5034559;28;20037;-56
2023/05/23 09:19:17;;;;;;;9.55;6.00;;;768.10;1331.20;;;;;;5034533;28;20021;-56
2023/05/23 09:21:46;;;;;;;10.48;6.18;;;743.00;1331.20;;;;;;5034526;28;20371;-56
2023/05/23 09:24:12;;;;;;;6.32;5.68;;;743.30;1305.60;;;;;;5034412;28;20047;-56
2023/05/23 09:30:14;;;;;;;8.88;7.40;;;742.80;1356.80;;;;;;5034298;28;20414;-55
2023/05/23 09:32:40;;;;;;;17.15;10.38;;;742.60;1356.80;;;;;;5032727;28;20118;-56
2023/05/23 09:35:10;;;;;;;27.83;13.50;;;742.80;1356.80;;;;;;5034031;28;20047;-56
2023/05/23 09:37:39;;;;;;;7.78;6.22;;;742.90;1331.20;;;;;;5032237;28;20492;-55
2023/05/23 09:40:12;;;;;;;7.90;5.07;;;717.70;1331.20;;;;;;5034162;28;20033;-55
2023/05/23 09:42:47;;;;;;;5.80;5.20;;;717.60;1331.20;;;;;;5034145;28;20022;-55
2023/05/23 09:45:15;;;;;;;12.25;5.85;;;717.70;1331.20;;;;;;5033719;28;20424;-56
2023/05/23 09:47:51;;;;;;;6.57;5.90;;;717.20;1382.40;;;;;;5034097;28;20085;-56
2023/05/23 09:50:17;;;;;;;6.45;5.07;;;742.40;1408.00;;;;;;5034007;28;20379;-56
2023/05/23 09:52:42;;;;;;;7.22;6.10;;;742.40;1356.80;;;;;;5033965;28;20026;-56
2023/05/23 09:55:09;;;;;;;8.07;6.40;;;717.50;1382.40;;;;;;5033875;28;20018;-56
2023/05/23 09:57:39;;;;;;;10.82;5.57;;;717.20;1408.00;;;;;;5033418;28;20501;-56
2023/05/23 10:00:15;;;;;;;7.07;5.88;;;717.40;1408.00;;;;;;5033575;28;20053;-56
2023/05/23 10:03:12;;;;;;;8.00;6.13;;;717.70;1382.40;;;;;;5032677;28;20044;-56
2023/05/23 10:05:46;;;;;;;9.23;6.35;;;742.80;1433.60;;;;;;5033189;28;20067;-56
2023/05/23 10:08:25;;;;;;;106.30;42.55;;;742.90;1433.60;;;;;;5033377;28;20105;-56
2023/05/23 10:10:57;;;;;;;10.48;6.88;;;742.80;1408.00;;;;;;5033575;28;20025;-56
2023/05/23 10:13:31;;;;;;;14.07;7.03;;;742.70;1408.00;;;;;;5033596;28;20076;-56
2023/05/23 10:16:22;;;;;;;19.98;9.55;;;742.70;1433.60;;;;;;5032888;28;20029;-56
2023/05/23 10:18:56;;;;;;;36.90;18.25;;;717.40;1433.60;;;;;;5030058;28;20041;-56
2023/05/23 10:21:31;;;;;;;17.52;10.68;;;717.70;1510.40;;;;;;5029716;28;20026;-56
2023/05/23 10:23:59;;;;;;;7.07;5.18;;;742.40;1459.20;;;;;;5029678;28;20088;-56
2023/05/23 10:26:27;;;;;;;7.43;5.25;;;742.40;1433.60;;;;;;5029719;28;20092;-56
2023/05/23 10:28:53;;;;;;;8.40;5.97;;;;;;;;;;5029836;28;20025;-56
2023/05/23 10:31:20;;;;;;;7.07;5.68;;;;;;;;;;5030213;28;20029;-56
2023/05/23 10:33:57;;;;;;;18.92;11.63;;;717.60;1408.00;;;;;;5029970;28;20379;-56
2023/05/23 10:36:34;;;;;;;11.05;6.75;;;717.50;1484.80;;;;;;5029303;28;20041;-56
2023/05/23 10:39:12;;;;;;;21.08;10.00;;;717.50;1484.80;;;;;;5030030;28;20045;-56
2023/05/23 10:41:55;;;;;;;7.18;5.22;;;717.70;1484.80;;;;;;5029677;28;20064;-56
2023/05/23 10:44:30;;;;;;;;;;;742.40;1459.20;;;;;;5030053;28;20029;-56
2023/05/23 10:47:01;;;;;;;15.48;8.90;;;717.70;1382.40;;;;;;5029829;28;19909;-56
2023/05/23 10:49:50;;;;;;;10.82;6.57;;;742.40;1459.20;;;;;;5029467;28;20021;-56
2023/05/23 10:52:16;;;;;;;9.30;5.70;;;717.50;1433.60;;;;;;5029880;28;20092;-56
2023/05/23 10:54:43;;;;;;;6.53;5.53;;;742.40;1459.20;;;;;;5029813;28;20033;-56
2023/05/23 10:57:11;;;;;;;7.47;5.45;;;717.40;1433.60;;;;;;5029444;28;20060;-56
2023/05/23 10:59:39;;;;;;;9.18;5.85;;;717.50;1433.60;;;;;;5029500;28;20033;-56
2023/05/23 11:02:13;;;;;;;5.95;5.35;;;717.10;1408.00;;;;;;5029421;28;20022;-76
2023/05/23 11:04:38;;;;;;;7.82;5.55;;;717.00;1433.60;;;;;;5029179;28;20033;-74
2023/05/23 11:07:04;;;;;;;7.10;5.47;;;717.40;1408.00;;;;;;5029041;28;20041;-56
2023/05/23 11:09:30;;;;;;;7.55;5.40;;;717.60;1459.20;;;;;;5029375;28;20037;-58
2023/05/23 11:11:58;;;;;;;10.27;6.32;;;717.40;1408.00;;;;;;5029497;28;20059;-56
2023/05/23 11:14:51;;;;;;;7.95;5.53;;;717.40;1408.00;;;;;;5029042;28;20098;-56
2023/05/23 11:17:28;;;;;;;9.25;5.43;;;717.10;1433.60;;;;;;5028131;28;20041;-56
2023/05/23 11:20:05;;;;;;;7.07;5.28;;;717.10;1433.60;;;;;;5028876;28;20105;-64
2023/05/23 11:22:32;;;;;;;6.10;4.82;;;717.10;1408.00;;;;;;5028890;28;20036;-56
2023/05/23 11:24:59;;;;;;;6.35;5.20;;;716.90;1408.00;;;;;;5029037;28;20057;-56
2023/05/23 11:27:36;;;;;;;7.45;5.30;;;716.80;1408.00;;;;;;5028714;28;20434;-56
2023/05/23 11:30:16;;;;;;;7.78;6.03;;;717.00;1433.60;;;;;;5028743;28;20018;-56
2023/05/23 11:32:50;;;;;;;8.18;5.50;;;717.20;1408.00;;;;;;5029071;28;20037;-56
2023/05/23 11:35:16;;;;;;;7.13;4.40;;;717.20;1433.60;;;;;;5029068;28;20022;-55
2023/05/23 11:37:43;;;;;;;5.90;5.15;;;717.20;1382.40;;;;;;5028351;28;20045;-56
2023/05/23 11:40:31;;;;;;;7.90;4.93;;;717.50;1408.00;;;;;;5028911;28;20030;-57
2023/05/23 11:42:58;;;;;;;7.60;5.35;;;717.70;1510.40;;;;;;5029387;28;20030;-56
2023/05/23 11:45:25;;;;;;;17.23;6.32;;;717.50;1408.00;;;;;;5028998;28;20073;-56
2023/05/23 11:47:51;;;;;;;6.82;4.63;;;717.40;1433.60;;;;;;5029117;28;20030;-56
2023/05/23 11:50:19;;;;;;;6.20;4.78;;;717.00;1408.00;;;;;;5028909;28;20037;-66
2023/05/23 11:52:50;;;;;;;6.22;5.32;;;717.10;1408.00;;;;;;5028794;28;20040;-56
2023/05/23 11:55:17;;;;;;;8.77;5.22;;;717.40;1484.80;;;;;;5028862;28;20029;-55
2023/05/23 11:57:43;;;;;;;10.23;4.72;;;717.60;1510.40;;;;;;5028538;28;20376;-57
2023/05/23 12:00:10;;;;;;;5.88;5.03;;;717.70;1433.60;;;;;;5029345;28;20029;-56
2023/05/23 12:02:39;;;;;;;20.73;8.88;;;742.50;1408.00;;;;;;5031980;28;20111;-58
2023/05/23 12:05:09;;;;;;;6.97;5.30;;;742.50;1459.20;;;;;;5032336;28;20029;-60
2023/05/23 12:07:35;;;;;;;7.18;5.20;;;717.50;1382.40;;;;;;5031913;28;20044;-56
2023/05/23 12:10:03;;;;;;;7.57;5.05;;;717.70;1382.40;;;;;;5032234;28;20033;-56
2023/05/23 12:12:31;;;;;;;7.18;5.10;;;717.60;1433.60;;;;;;5032089;28;20375;-56
2023/05/23 12:14:57;;;;;;;7.07;5.03;;;717.30;1382.40;;;;;;5031962;28;20083;-56
2023/05/23 12:17:23;;;;;;;7.28;5.05;;;717.50;1382.40;;;;;;5031830;28;20116;-56
2023/05/23 12:19:49;;;;;;;7.35;4.68;;;717.40;1408.00;;;;;;5032072;28;20726;-56
2023/05/23 12:22:14;;;;;;;9.50;4.72;;;717.30;1408.00;;;;;;5031833;28;20036;-56
2023/05/23 12:24:46;;;;;;;5.93;4.43;;;717.00;1408.00;;;;;;5032209;28;20380;-56
2023/05/23 12:27:12;;;;;;;6.53;5.65;;;717.40;1433.60;;;;;;5031490;28;20032;-56
2023/05/23 12:29:38;;;;;;;14.23;5.80;;;717.40;1433.60;;;;;;5031446;28;20026;-69
2023/05/23 12:32:06;;;;;;;6.15;4.78;;;717.30;1408.00;;;;;;5031789;28;20108;-56
2023/05/23 12:34:32;;;;;;;10.77;5.05;;;717.00;1408.00;;;;;;5031426;28;20471;-56
2023/05/23 12:37:02;;;;;;;7.55;4.72;;;716.80;1382.40;;;;;;5031137;28;20053;-56
2023/05/23 12:39:28;;;;;;;7.20;5.05;;;716.90;1382.40;;;;;;5031734;28;20038;-56
2023/05/23 12:42:14;;;;;;;6.18;4.68;;;717.20;1408.00;;;;;;5031608;28;20025;-56
2023/05/23 12:44:42;;;;;;;8.27;4.82;;;717.40;1433.60;;;;;;5031601;28;20076;-57
2023/05/23 12:47:09;;;;;;;8.27;4.57;;;717.20;1433.60;;;;;;5031886;28;20064;-61